sensor_id;sensor_type;location;lat;lon;timestamp;P1;durP1;ratioP1;P2;durP2;ratioP2
49366;SDS011;35245;52.026;8.540;2023-07-16T00:01:57;5.72;;;1.80;;
49366;SDS011;35245;52.026;8.540;2023-07-16T00:04:24;4.10;;;2.15;;
49366;SDS011;35245;52.026;8.540;2023-07-16T00:06:51;4.38;;;2.40;;
49366;SDS011;35245;52.026;8.540;2023-07-16T00:09:20;6.55;;;3.47;;
49366;SDS011;35245;52.026;8.540;2023-07-16T00:11:47;8.30;;;4.53;;
49366;SDS011;35245;52.026;8.540;2023-07-16T00:14:14;5.90;;;2.38;;
49366;SDS011;35245;52.026;8.540;2023-07-16T00:16:41;6.35;;;2.70;;
49366;SDS011;35245;52.026;8.540;2023-07-16T00:19:09;3.55;;;2.42;;
49366;SDS011;35245;52.026;8.540;2023-07-16T00:21:37;4.97;;;2.40;;
49366;SDS011;35245;52.026;8.540;2023-07-16T00:24:04;3.67;;;2.17;;
49366;SDS011;35245;52.026;8.540;2023-07-16T00:26:33;3.97;;;2.58;;
49366;SDS011;35245;52.026;8.540;2023-07-16T00:29:00;3.88;;;2.30;;
49366;SDS011;35245;52.026;8.540;2023-07-16T00:31:27;3.17;;;1.85;;
49366;SDS011;35245;52.026;8.540;2023-07-16T00:33:54;4.97;;;2.08;;
49366;SDS011;35245;52.026;8.540;2023-07-16T00:36:21;5.32;;;2.33;;
49366;SDS011;35245;52.026;8.540;2023-07-16T00:38:48;3.88;;;1.80;;
49366;SDS011;35245;52.026;8.540;2023-07-16T00:41:16;6.10;;;2.17;;
49366;SDS011;35245;52.026;8.540;2023-07-16T00:43:44;3.60;;;1.80;;
49366;SDS011;35245;52.026;8.540;2023-07-16T00:46:11;4.40;;;2.15;;
49366;SDS011;35245;52.026;8.540;2023-07-16T00:48:39;1.98;;;1.50;;
49366;SDS011;35245;52.026;8.540;2023-07-16T00:51:07;3.33;;;1.45;;
49366;SDS011;35245;52.026;8.540;2023-07-16T00:53:35;3.05;;;1.80;;
49366;SDS011;35245;52.026;8.540;2023-07-16T00:56:02;3.85;;;1.80;;
49366;SDS011;35245;52.026;8.540;2023-07-16T00:58:29;3.95;;;1.92;;
49366;SDS011;35245;52.026;8.540;2023-07-16T01:00:58;5.72;;;2.53;;
49366;SDS011;35245;52.026;8.540;2023-07-16T01:03:25;4.95;;;2.58;;
49366;SDS011;35245;52.026;8.540;2023-07-16T01:06:04;4.05;;;1.80;;
49366;SDS011;35245;52.026;8.540;2023-07-16T01:08:41;3.92;;;2.53;;
49366;SDS011;35245;52.026;8.540;2023-07-16T01:11:13;4.55;;;2.30;;
49366;SDS011;35245;52.026;8.540;2023-07-16T01:13:41;5.80;;;2.08;;
49366;SDS011;35245;52.026;8.540;2023-07-16T01:16:18;3.80;;;2.05;;
49366;SDS011;35245;52.026;8.540;2023-07-16T01:18:46;5.43;;;2.15;;
49366;SDS011;35245;52.026;8.540;2023-07-16T01:21:13;3.03;;;2.13;;
49366;SDS011;35245;52.026;8.540;2023-07-16T01:23:54;5.38;;;2.30;;
49366;SDS011;35245;52.026;8.540;2023-07-16T01:26:39;4.38;;;2.25;;
49366;SDS011;35245;52.026;8.540;2023-07-16T01:29:29;5.20;;;1.92;;
49366;SDS011;35245;52.026;8.540;2023-07-16T01:31:59;6.90;;;2.17;;
49366;SDS011;35245;52.026;8.540;2023-07-16T01:34:29;4.32;;;1.85;;
49366;SDS011;35245;52.026;8.540;2023-07-16T01:37:00;3.55;;;2.10;;
49366;SDS011;35245;52.026;8.540;2023-07-16T01:39:29;3.17;;;1.80;;
49366;SDS011;35245;52.026;8.540;2023-07-16T01:41:57;5.85;;;2.15;;
49366;SDS011;35245;52.026;8.540;2023-07-16T01:44:25;5.13;;;2.10;;
49366;SDS011;35245;52.026;8.540;2023-07-16T01:47:02;4.63;;;2.30;;
49366;SDS011;35245;52.026;8.540;2023-07-16T01:49:34;4.88;;;2.28;;
49366;SDS011;35245;52.026;8.540;2023-07-16T01:52:01;6.20;;;2.10;;
49366;SDS011;35245;52.026;8.540;2023-07-16T01:54:34;3.50;;;2.08;;
49366;SDS011;35245;52.026;8.540;2023-07-16T01:57:01;3.50;;;2.22;;
49366;SDS011;35245;52.026;8.540;2023-07-16T01:59:28;4.88;;;1.98;;
49366;SDS011;35245;52.026;8.540;2023-07-16T02:01:57;4.10;;;2.00;;
49366;SDS011;35245;52.026;8.540;2023-07-16T02:04:24;5.22;;;2.30;;
49366;SDS011;35245;52.026;8.540;2023-07-16T02:06:51;3.30;;;1.90;;
49366;SDS011;35245;52.026;8.540;2023-07-16T02:09:18;5.13;;;1.77;;
49366;SDS011;35245;52.026;8.540;2023-07-16T02:11:45;4.60;;;2.05;;
49366;SDS011;35245;52.026;8.540;2023-07-16T02:14:12;2.60;;;1.75;;
49366;SDS011;35245;52.026;8.540;2023-07-16T02:16:41;3.92;;;2.15;;
49366;SDS011;35245;52.026;8.540;2023-07-16T02:19:09;3.88;;;2.38;;
49366;SDS011;35245;52.026;8.540;2023-07-16T02:21:36;5.50;;;2.05;;
49366;SDS011;35245;52.026;8.540;2023-07-16T02:24:03;4.60;;;2.60;;
49366;SDS011;35245;52.026;8.540;2023-07-16T02:26:31;4.70;;;1.98;;
49366;SDS011;35245;52.026;8.540;2023-07-16T02:28:58;3.95;;;2.20;;
49366;SDS011;35245;52.026;8.540;2023-07-16T02:31:25;5.05;;;2.30;;
49366;SDS011;35245;52.026;8.540;2023-07-16T02:33:52;4.38;;;1.90;;
49366;SDS011;35245;52.026;8.540;2023-07-16T02:36:21;2.35;;;1.58;;
49366;SDS011;35245;52.026;8.540;2023-07-16T02:38:48;4.13;;;2.40;;
49366;SDS011;35245;52.026;8.540;2023-07-16T02:41:15;2.75;;;1.75;;
49366;SDS011;35245;52.026;8.540;2023-07-16T02:43:42;4.95;;;1.95;;
49366;SDS011;35245;52.026;8.540;2023-07-16T02:46:11;3.50;;;1.70;;
49366;SDS011;35245;52.026;8.540;2023-07-16T02:48:38;4.63;;;2.05;;
49366;SDS011;35245;52.026;8.540;2023-07-16T02:51:05;6.22;;;2.35;;
49366;SDS011;35245;52.026;8.540;2023-07-16T02:53:34;6.10;;;2.30;;
49366;SDS011;35245;52.026;8.540;2023-07-16T02:56:01;4.50;;;2.25;;
49366;SDS011;35245;52.026;8.540;2023-07-16T02:58:28;4.82;;;2.30;;
49366;SDS011;35245;52.026;8.540;2023-07-16T03:00:55;3.55;;;2.25;;
49366;SDS011;35245;52.026;8.540;2023-07-16T03:03:22;4.32;;;2.15;;
49366;SDS011;35245;52.026;8.540;2023-07-16T03:05:49;4.57;;;2.53;;
49366;SDS011;35245;52.026;8.540;2023-07-16T03:08:16;5.53;;;2.42;;
49366;SDS011;35245;52.026;8.540;2023-07-16T03:10:46;4.10;;;2.17;;
49366;SDS011;35245;52.026;8.540;2023-07-16T03:13:13;3.60;;;2.20;;
49366;SDS011;35245;52.026;8.540;2023-07-16T03:15:40;5.40;;;2.25;;
49366;SDS011;35245;52.026;8.540;2023-07-16T03:18:07;3.28;;;1.95;;
49366;SDS011;35245;52.026;8.540;2023-07-16T03:20:34;6.38;;;2.40;;
49366;SDS011;35245;52.026;8.540;2023-07-16T03:23:01;8.20;;;2.92;;
49366;SDS011;35245;52.026;8.540;2023-07-16T03:25:29;5.50;;;2.63;;
49366;SDS011;35245;52.026;8.540;2023-07-16T03:27:57;6.28;;;2.13;;
49366;SDS011;35245;52.026;8.540;2023-07-16T03:30:24;3.72;;;2.40;;
49366;SDS011;35245;52.026;8.540;2023-07-16T03:32:52;3.35;;;2.20;;
49366;SDS011;35245;52.026;8.540;2023-07-16T03:35:19;7.50;;;2.35;;
49366;SDS011;35245;52.026;8.540;2023-07-16T03:37:46;4.75;;;2.50;;
49366;SDS011;35245;52.026;8.540;2023-07-16T03:40:13;7.07;;;2.42;;
49366;SDS011;35245;52.026;8.540;2023-07-16T03:42:42;5.18;;;2.17;;
49366;SDS011;35245;52.026;8.540;2023-07-16T03:45:11;6.50;;;2.30;;
49366;SDS011;35245;52.026;8.540;2023-07-16T03:47:39;5.07;;;2.47;;
49366;SDS011;35245;52.026;8.540;2023-07-16T03:50:06;3.58;;;2.55;;
49366;SDS011;35245;52.026;8.540;2023-07-16T03:52:34;4.28;;;2.65;;
49366;SDS011;35245;52.026;8.540;2023-07-16T03:55:01;6.28;;;2.80;;
49366;SDS011;35245;52.026;8.540;2023-07-16T03:57:29;3.80;;;2.33;;
49366;SDS011;35245;52.026;8.540;2023-07-16T03:59:56;4.10;;;2.20;;
49366;SDS011;35245;52.026;8.540;2023-07-16T04:02:25;4.05;;;2.22;;
49366;SDS011;35245;52.026;8.540;2023-07-16T04:04:52;5.80;;;2.50;;
49366;SDS011;35245;52.026;8.540;2023-07-16T04:07:19;4.80;;;2.40;;
49366;SDS011;35245;52.026;8.540;2023-07-16T04:09:46;3.42;;;2.55;;
49366;SDS011;35245;52.026;8.540;2023-07-16T04:12:13;4.53;;;2.30;;
49366;SDS011;35245;52.026;8.540;2023-07-16T04:14:40;4.60;;;2.63;;
49366;SDS011;35245;52.026;8.540;2023-07-16T04:17:07;5.20;;;2.30;;
49366;SDS011;35245;52.026;8.540;2023-07-16T04:19:36;6.82;;;2.90;;
49366;SDS011;35245;52.026;8.540;2023-07-16T04:22:04;5.60;;;2.60;;
49366;SDS011;35245;52.026;8.540;2023-07-16T04:24:31;6.43;;;2.30;;
49366;SDS011;35245;52.026;8.540;2023-07-16T04:26:58;3.42;;;2.00;;
49366;SDS011;35245;52.026;8.540;2023-07-16T04:29:25;3.75;;;1.90;;
49366;SDS011;35245;52.026;8.540;2023-07-16T04:31:53;6.32;;;2.50;;
49366;SDS011;35245;52.026;8.540;2023-07-16T04:34:20;3.67;;;2.38;;
49366;SDS011;35245;52.026;8.540;2023-07-16T04:36:49;4.85;;;2.28;;
49366;SDS011;35245;52.026;8.540;2023-07-16T04:39:16;4.97;;;2.60;;
49366;SDS011;35245;52.026;8.540;2023-07-16T04:41:43;4.53;;;2.30;;
49366;SDS011;35245;52.026;8.540;2023-07-16T04:44:10;5.15;;;1.73;;
49366;SDS011;35245;52.026;8.540;2023-07-16T04:46:37;4.32;;;2.05;;
49366;SDS011;35245;52.026;8.540;2023-07-16T04:49:04;6.22;;;2.60;;
49366;SDS011;35245;52.026;8.540;2023-07-16T04:51:31;5.50;;;2.22;;
49366;SDS011;35245;52.026;8.540;2023-07-16T04:54:00;3.70;;;2.17;;
49366;SDS011;35245;52.026;8.540;2023-07-16T04:56:27;5.30;;;2.25;;
49366;SDS011;35245;52.026;8.540;2023-07-16T04:58:54;5.20;;;2.35;;
49366;SDS011;35245;52.026;8.540;2023-07-16T05:01:21;8.05;;;2.58;;
49366;SDS011;35245;52.026;8.540;2023-07-16T05:03:48;7.63;;;2.30;;
49366;SDS011;35245;52.026;8.540;2023-07-16T05:06:15;4.65;;;1.90;;
49366;SDS011;35245;52.026;8.540;2023-07-16T05:08:42;6.38;;;2.00;;
49366;SDS011;35245;52.026;8.540;2023-07-16T05:11:11;6.47;;;2.10;;
49366;SDS011;35245;52.026;8.540;2023-07-16T05:13:38;6.35;;;2.15;;
49366;SDS011;35245;52.026;8.540;2023-07-16T05:16:05;4.78;;;2.03;;
49366;SDS011;35245;52.026;8.540;2023-07-16T05:18:33;9.57;;;2.78;;
49366;SDS011;35245;52.026;8.540;2023-07-16T05:21:00;3.40;;;1.80;;
49366;SDS011;35245;52.026;8.540;2023-07-16T05:23:27;5.03;;;2.00;;
49366;SDS011;35245;52.026;8.540;2023-07-16T05:25:54;5.03;;;1.90;;
49366;SDS011;35245;52.026;8.540;2023-07-16T05:28:22;4.20;;;2.10;;
49366;SDS011;35245;52.026;8.540;2023-07-16T05:30:57;5.32;;;2.13;;
49366;SDS011;35245;52.026;8.540;2023-07-16T05:33:25;5.88;;;2.13;;
49366;SDS011;35245;52.026;8.540;2023-07-16T05:35:52;6.68;;;2.75;;
49366;SDS011;35245;52.026;8.540;2023-07-16T05:38:19;6.30;;;2.15;;
49366;SDS011;35245;52.026;8.540;2023-07-16T05:40:46;4.38;;;2.17;;
49366;SDS011;35245;52.026;8.540;2023-07-16T05:43:13;3.78;;;1.70;;
49366;SDS011;35245;52.026;8.540;2023-07-16T05:45:42;4.15;;;2.20;;
49366;SDS011;35245;52.026;8.540;2023-07-16T05:48:09;5.22;;;2.22;;
49366;SDS011;35245;52.026;8.540;2023-07-16T05:50:36;6.75;;;2.85;;
49366;SDS011;35245;52.026;8.540;2023-07-16T05:53:04;4.57;;;2.28;;
49366;SDS011;35245;52.026;8.540;2023-07-16T05:55:31;4.93;;;2.17;;
49366;SDS011;35245;52.026;8.540;2023-07-16T05:57:58;4.55;;;2.22;;
49366;SDS011;35245;52.026;8.540;2023-07-16T06:00:25;7.35;;;2.28;;
49366;SDS011;35245;52.026;8.540;2023-07-16T06:02:53;9.73;;;2.80;;
49366;SDS011;35245;52.026;8.540;2023-07-16T06:05:20;5.25;;;2.55;;
49366;SDS011;35245;52.026;8.540;2023-07-16T06:07:47;7.88;;;2.97;;
49366;SDS011;35245;52.026;8.540;2023-07-16T06:10:14;11.10;;;3.50;;
49366;SDS011;35245;52.026;8.540;2023-07-16T06:12:42;7.82;;;2.70;;
49366;SDS011;35245;52.026;8.540;2023-07-16T06:15:09;9.55;;;3.00;;
49366;SDS011;35245;52.026;8.540;2023-07-16T06:17:36;6.40;;;3.20;;
49366;SDS011;35245;52.026;8.540;2023-07-16T06:20:05;6.80;;;2.72;;
49366;SDS011;35245;52.026;8.540;2023-07-16T06:22:34;5.50;;;2.80;;
49366;SDS011;35245;52.026;8.540;2023-07-16T06:25:01;9.15;;;3.17;;
49366;SDS011;35245;52.026;8.540;2023-07-16T06:27:29;11.18;;;3.47;;
49366;SDS011;35245;52.026;8.540;2023-07-16T06:29:56;9.82;;;3.25;;
49366;SDS011;35245;52.026;8.540;2023-07-16T06:32:23;9.75;;;2.92;;
49366;SDS011;35245;52.026;8.540;2023-07-16T06:34:50;8.90;;;3.65;;
49366;SDS011;35245;52.026;8.540;2023-07-16T06:37:19;8.55;;;2.88;;
49366;SDS011;35245;52.026;8.540;2023-07-16T06:39:48;7.30;;;2.92;;
49366;SDS011;35245;52.026;8.540;2023-07-16T06:42:15;8.77;;;3.00;;
49366;SDS011;35245;52.026;8.540;2023-07-16T06:44:42;7.32;;;3.28;;
49366;SDS011;35245;52.026;8.540;2023-07-16T06:47:10;11.55;;;3.42;;
49366;SDS011;35245;52.026;8.540;2023-07-16T06:49:37;7.15;;;3.15;;
49366;SDS011;35245;52.026;8.540;2023-07-16T06:52:04;9.77;;;3.80;;
49366;SDS011;35245;52.026;8.540;2023-07-16T06:54:34;9.60;;;3.67;;
49366;SDS011;35245;52.026;8.540;2023-07-16T06:57:01;10.05;;;3.35;;
49366;SDS011;35245;52.026;8.540;2023-07-16T06:59:28;13.55;;;3.60;;
49366;SDS011;35245;52.026;8.540;2023-07-16T07:01:56;9.90;;;3.22;;
49366;SDS011;35245;52.026;8.540;2023-07-16T07:04:23;13.80;;;4.03;;
49366;SDS011;35245;52.026;8.540;2023-07-16T07:06:50;6.28;;;3.28;;
49366;SDS011;35245;52.026;8.540;2023-07-16T07:09:17;16.20;;;4.28;;
49366;SDS011;35245;52.026;8.540;2023-07-16T07:11:45;7.88;;;3.50;;
49366;SDS011;35245;52.026;8.540;2023-07-16T07:14:13;11.35;;;4.07;;
49366;SDS011;35245;52.026;8.540;2023-07-16T07:16:40;12.77;;;4.30;;
49366;SDS011;35245;52.026;8.540;2023-07-16T07:19:07;10.27;;;4.13;;
49366;SDS011;35245;52.026;8.540;2023-07-16T07:21:35;7.70;;;3.90;;
49366;SDS011;35245;52.026;8.540;2023-07-16T07:24:02;9.93;;;3.63;;
49366;SDS011;35245;52.026;8.540;2023-07-16T07:26:29;9.73;;;4.03;;
49366;SDS011;35245;52.026;8.540;2023-07-16T07:28:58;8.55;;;4.18;;
49366;SDS011;35245;52.026;8.540;2023-07-16T07:31:25;15.52;;;4.45;;
49366;SDS011;35245;52.026;8.540;2023-07-16T07:33:52;11.27;;;4.00;;
49366;SDS011;35245;52.026;8.540;2023-07-16T07:36:19;7.50;;;3.70;;
49366;SDS011;35245;52.026;8.540;2023-07-16T07:38:46;10.98;;;3.45;;
49366;SDS011;35245;52.026;8.540;2023-07-16T07:41:13;7.97;;;3.55;;
49366;SDS011;35245;52.026;8.540;2023-07-16T07:43:40;14.57;;;4.03;;
49366;SDS011;35245;52.026;8.540;2023-07-16T07:46:09;6.22;;;3.17;;
49366;SDS011;35245;52.026;8.540;2023-07-16T07:48:36;10.73;;;3.83;;
49366;SDS011;35245;52.026;8.540;2023-07-16T07:51:03;7.15;;;3.55;;
49366;SDS011;35245;52.026;8.540;2023-07-16T07:53:30;6.95;;;3.63;;
49366;SDS011;35245;52.026;8.540;2023-07-16T07:55:57;10.10;;;3.42;;
49366;SDS011;35245;52.026;8.540;2023-07-16T07:58:24;8.02;;;3.60;;
49366;SDS011;35245;52.026;8.540;2023-07-16T08:00:52;9.55;;;3.63;;
49366;SDS011;35245;52.026;8.540;2023-07-16T08:03:20;7.68;;;3.45;;
49366;SDS011;35245;52.026;8.540;2023-07-16T08:05:47;10.25;;;3.92;;
49366;SDS011;35245;52.026;8.540;2023-07-16T08:08:15;9.93;;;3.80;;
49366;SDS011;35245;52.026;8.540;2023-07-16T08:10:42;8.13;;;4.20;;
49366;SDS011;35245;52.026;8.540;2023-07-16T08:13:11;6.10;;;3.33;;
49366;SDS011;35245;52.026;8.540;2023-07-16T08:15:38;9.75;;;3.95;;
49366;SDS011;35245;52.026;8.540;2023-07-16T08:18:05;8.95;;;4.00;;
49366;SDS011;35245;52.026;8.540;2023-07-16T08:20:35;9.27;;;3.95;;
49366;SDS011;35245;52.026;8.540;2023-07-16T08:23:02;8.45;;;3.83;;
49366;SDS011;35245;52.026;8.540;2023-07-16T08:25:29;11.27;;;4.07;;
49366;SDS011;35245;52.026;8.540;2023-07-16T08:27:56;8.10;;;3.70;;
49366;SDS011;35245;52.026;8.540;2023-07-16T08:30:23;16.80;;;4.72;;
49366;SDS011;35245;52.026;8.540;2023-07-16T08:32:50;7.22;;;3.72;;
49366;SDS011;35245;52.026;8.540;2023-07-16T08:35:17;9.55;;;3.85;;
49366;SDS011;35245;52.026;8.540;2023-07-16T08:37:46;10.65;;;4.22;;
49366;SDS011;35245;52.026;8.540;2023-07-16T08:40:13;11.93;;;3.97;;
49366;SDS011;35245;52.026;8.540;2023-07-16T08:42:41;8.63;;;4.13;;
49366;SDS011;35245;52.026;8.540;2023-07-16T08:45:11;8.07;;;3.80;;
49366;SDS011;35245;52.026;8.540;2023-07-16T08:47:40;10.43;;;4.25;;
49366;SDS011;35245;52.026;8.540;2023-07-16T08:50:07;7.57;;;3.92;;
49366;SDS011;35245;52.026;8.540;2023-07-16T08:52:36;7.45;;;4.10;;
49366;SDS011;35245;52.026;8.540;2023-07-16T08:55:06;10.68;;;3.90;;
49366;SDS011;35245;52.026;8.540;2023-07-16T08:57:34;10.32;;;3.92;;
49366;SDS011;35245;52.026;8.540;2023-07-16T09:00:02;8.85;;;3.63;;
49366;SDS011;35245;52.026;8.540;2023-07-16T09:02:31;5.78;;;3.67;;
49366;SDS011;35245;52.026;8.540;2023-07-16T09:04:59;9.02;;;3.63;;
49366;SDS011;35245;52.026;8.540;2023-07-16T09:07:26;5.18;;;3.33;;
49366;SDS011;35245;52.026;8.540;2023-07-16T09:09:56;5.72;;;3.50;;
49366;SDS011;35245;52.026;8.540;2023-07-16T09:14:55;6.82;;;4.00;;
49366;SDS011;35245;52.026;8.540;2023-07-16T09:17:22;9.60;;;3.97;;
49366;SDS011;35245;52.026;8.540;2023-07-16T09:19:51;7.85;;;3.45;;
49366;SDS011;35245;52.026;8.540;2023-07-16T09:22:18;9.13;;;3.47;;
49366;SDS011;35245;52.026;8.540;2023-07-16T09:24:46;5.45;;;3.35;;
49366;SDS011;35245;52.026;8.540;2023-07-16T09:27:14;9.70;;;4.20;;
49366;SDS011;35245;52.026;8.540;2023-07-16T09:29:42;6.40;;;3.17;;
49366;SDS011;35245;52.026;8.540;2023-07-16T09:32:09;11.30;;;3.58;;
49366;SDS011;35245;52.026;8.540;2023-07-16T09:34:36;6.45;;;3.42;;
49366;SDS011;35245;52.026;8.540;2023-07-16T09:37:04;8.63;;;3.80;;
49366;SDS011;35245;52.026;8.540;2023-07-16T09:39:32;7.32;;;3.42;;
49366;SDS011;35245;52.026;8.540;2023-07-16T09:41:59;7.40;;;3.78;;
49366;SDS011;35245;52.026;8.540;2023-07-16T09:44:29;7.75;;;4.10;;
49366;SDS011;35245;52.026;8.540;2023-07-16T09:46:58;5.40;;;3.30;;
49366;SDS011;35245;52.026;8.540;2023-07-16T09:49:26;5.65;;;3.15;;
49366;SDS011;35245;52.026;8.540;2023-07-16T09:51:56;5.43;;;3.53;;
49366;SDS011;35245;52.026;8.540;2023-07-16T09:54:24;8.35;;;3.67;;
49366;SDS011;35245;52.026;8.540;2023-07-16T09:56:53;6.63;;;3.40;;
49366;SDS011;35245;52.026;8.540;2023-07-16T10:01:54;10.05;;;3.90;;
49366;SDS011;35245;52.026;8.540;2023-07-16T10:04:23;7.88;;;3.58;;
49366;SDS011;35245;52.026;8.540;2023-07-16T10:06:51;5.85;;;3.47;;
49366;SDS011;35245;52.026;8.540;2023-07-16T10:09:36;4.72;;;3.05;;
49366;SDS011;35245;52.026;8.540;2023-07-16T10:12:12;8.63;;;3.53;;
49366;SDS011;35245;52.026;8.540;2023-07-16T10:14:41;10.82;;;3.45;;
49366;SDS011;35245;52.026;8.540;2023-07-16T10:17:16;9.27;;;4.00;;
49366;SDS011;35245;52.026;8.540;2023-07-16T10:19:54;7.97;;;3.60;;
49366;SDS011;35245;52.026;8.540;2023-07-16T10:22:36;8.15;;;3.72;;
49366;SDS011;35245;52.026;8.540;2023-07-16T10:25:07;4.93;;;3.53;;
49366;SDS011;35245;52.026;8.540;2023-07-16T10:27:35;7.27;;;3.30;;
49366;SDS011;35245;52.026;8.540;2023-07-16T10:30:03;6.60;;;3.40;;
49366;SDS011;35245;52.026;8.540;2023-07-16T10:32:32;5.22;;;3.50;;
49366;SDS011;35245;52.026;8.540;2023-07-16T10:35:01;11.15;;;3.65;;
49366;SDS011;35245;52.026;8.540;2023-07-16T10:37:31;5.63;;;3.58;;
49366;SDS011;35245;52.026;8.540;2023-07-16T10:39:58;7.35;;;3.47;;
49366;SDS011;35245;52.026;8.540;2023-07-16T10:42:29;7.05;;;3.60;;
49366;SDS011;35245;52.026;8.540;2023-07-16T10:44:57;5.18;;;3.45;;
49366;SDS011;35245;52.026;8.540;2023-07-16T10:47:29;7.55;;;3.55;;
49366;SDS011;35245;52.026;8.540;2023-07-16T10:49:58;7.30;;;3.55;;
49366;SDS011;35245;52.026;8.540;2023-07-16T10:52:27;5.88;;;3.00;;
49366;SDS011;35245;52.026;8.540;2023-07-16T10:54:54;6.78;;;3.60;;
49366;SDS011;35245;52.026;8.540;2023-07-16T10:57:23;4.53;;;2.85;;
49366;SDS011;35245;52.026;8.540;2023-07-16T10:59:50;6.68;;;3.70;;
49366;SDS011;35245;52.026;8.540;2023-07-16T11:02:19;5.95;;;3.80;;
49366;SDS011;35245;52.026;8.540;2023-07-16T11:04:48;6.75;;;3.22;;
49366;SDS011;35245;52.026;8.540;2023-07-16T11:07:18;7.30;;;3.38;;
49366;SDS011;35245;52.026;8.540;2023-07-16T11:09:47;7.85;;;3.78;;
49366;SDS011;35245;52.026;8.540;2023-07-16T11:12:17;7.28;;;3.78;;
49366;SDS011;35245;52.026;8.540;2023-07-16T11:14:45;5.78;;;3.05;;
49366;SDS011;35245;52.026;8.540;2023-07-16T11:17:14;5.70;;;3.28;;
49366;SDS011;35245;52.026;8.540;2023-07-16T11:19:44;7.30;;;3.40;;
49366;SDS011;35245;52.026;8.540;2023-07-16T11:22:13;8.32;;;3.28;;
49366;SDS011;35245;52.026;8.540;2023-07-16T11:24:41;6.63;;;3.42;;
49366;SDS011;35245;52.026;8.540;2023-07-16T11:27:15;5.95;;;3.30;;
49366;SDS011;35245;52.026;8.540;2023-07-16T11:29:47;7.40;;;3.50;;
49366;SDS011;35245;52.026;8.540;2023-07-16T11:32:25;7.13;;;3.47;;
49366;SDS011;35245;52.026;8.540;2023-07-16T11:34:54;12.60;;;3.97;;
49366;SDS011;35245;52.026;8.540;2023-07-16T11:37:24;5.68;;;3.63;;
49366;SDS011;35245;52.026;8.540;2023-07-16T11:39:54;7.30;;;3.33;;
49366;SDS011;35245;52.026;8.540;2023-07-16T11:42:27;6.47;;;3.50;;
49366;SDS011;35245;52.026;8.540;2023-07-16T11:44:55;5.55;;;3.25;;
49366;SDS011;35245;52.026;8.540;2023-07-16T11:47:23;6.05;;;3.33;;
49366;SDS011;35245;52.026;8.540;2023-07-16T11:49:50;7.38;;;3.30;;
49366;SDS011;35245;52.026;8.540;2023-07-16T11:52:21;4.28;;;3.10;;
49366;SDS011;35245;52.026;8.540;2023-07-16T11:54:51;5.97;;;3.13;;
49366;SDS011;35245;52.026;8.540;2023-07-16T11:57:18;5.47;;;3.08;;
49366;SDS011;35245;52.026;8.540;2023-07-16T11:59:46;5.85;;;3.40;;
49366;SDS011;35245;52.026;8.540;2023-07-16T12:02:14;5.47;;;3.03;;
49366;SDS011;35245;52.026;8.540;2023-07-16T12:04:41;5.80;;;3.22;;
49366;SDS011;35245;52.026;8.540;2023-07-16T12:07:08;7.38;;;3.10;;
49366;SDS011;35245;52.026;8.540;2023-07-16T12:09:35;5.00;;;3.33;;
49366;SDS011;35245;52.026;8.540;2023-07-16T12:12:03;5.65;;;3.33;;
49366;SDS011;35245;52.026;8.540;2023-07-16T12:14:31;6.00;;;3.05;;
49366;SDS011;35245;52.026;8.540;2023-07-16T12:17:00;7.85;;;3.72;;
49366;SDS011;35245;52.026;8.540;2023-07-16T12:19:27;5.88;;;3.35;;
49366;SDS011;35245;52.026;8.540;2023-07-16T12:21:54;5.82;;;3.10;;
49366;SDS011;35245;52.026;8.540;2023-07-16T12:24:24;9.38;;;3.78;;
49366;SDS011;35245;52.026;8.540;2023-07-16T12:26:51;4.45;;;2.95;;
49366;SDS011;35245;52.026;8.540;2023-07-16T12:29:18;4.63;;;2.85;;
49366;SDS011;35245;52.026;8.540;2023-07-16T12:31:46;4.45;;;3.13;;
49366;SDS011;35245;52.026;8.540;2023-07-16T12:34:14;6.40;;;3.33;;
49366;SDS011;35245;52.026;8.540;2023-07-16T12:36:41;4.53;;;3.35;;
49366;SDS011;35245;52.026;8.540;2023-07-16T12:39:08;4.78;;;3.20;;
49366;SDS011;35245;52.026;8.540;2023-07-16T12:41:36;5.63;;;3.03;;
49366;SDS011;35245;52.026;8.540;2023-07-16T12:44:03;5.35;;;3.40;;
49366;SDS011;35245;52.026;8.540;2023-07-16T12:46:30;4.65;;;3.00;;
49366;SDS011;35245;52.026;8.540;2023-07-16T12:48:57;6.80;;;3.30;;
49366;SDS011;35245;52.026;8.540;2023-07-16T12:51:25;3.90;;;2.92;;
49366;SDS011;35245;52.026;8.540;2023-07-16T12:53:52;5.25;;;3.25;;
49366;SDS011;35245;52.026;8.540;2023-07-16T12:56:19;4.10;;;2.75;;
49366;SDS011;35245;52.026;8.540;2023-07-16T12:58:47;7.97;;;3.90;;
49366;SDS011;35245;52.026;8.540;2023-07-16T13:01:14;6.95;;;3.15;;
49366;SDS011;35245;52.026;8.540;2023-07-16T13:03:41;4.43;;;2.85;;
49366;SDS011;35245;52.026;8.540;2023-07-16T13:06:08;4.60;;;2.90;;
49366;SDS011;35245;52.026;8.540;2023-07-16T13:08:37;6.32;;;2.75;;
49366;SDS011;35245;52.026;8.540;2023-07-16T13:11:04;4.15;;;2.88;;
49366;SDS011;35245;52.026;8.540;2023-07-16T13:13:31;6.38;;;3.30;;
49366;SDS011;35245;52.026;8.540;2023-07-16T13:15:58;4.72;;;3.00;;
49366;SDS011;35245;52.026;8.540;2023-07-16T13:18:25;6.18;;;3.28;;
49366;SDS011;35245;52.026;8.540;2023-07-16T13:20:52;4.38;;;2.58;;
49366;SDS011;35245;52.026;8.540;2023-07-16T13:23:19;4.93;;;2.97;;
49366;SDS011;35245;52.026;8.540;2023-07-16T13:25:47;7.55;;;3.22;;
49366;SDS011;35245;52.026;8.540;2023-07-16T13:28:16;7.10;;;2.83;;
49366;SDS011;35245;52.026;8.540;2023-07-16T13:30:44;6.30;;;3.03;;
49366;SDS011;35245;52.026;8.540;2023-07-16T13:33:11;5.35;;;2.50;;
49366;SDS011;35245;52.026;8.540;2023-07-16T13:35:38;5.78;;;2.90;;
49366;SDS011;35245;52.026;8.540;2023-07-16T13:38:05;5.15;;;2.90;;
49366;SDS011;35245;52.026;8.540;2023-07-16T13:40:32;8.82;;;2.55;;
49366;SDS011;35245;52.026;8.540;2023-07-16T13:43:00;6.25;;;2.72;;
49366;SDS011;35245;52.026;8.540;2023-07-16T13:45:28;5.85;;;3.08;;
49366;SDS011;35245;52.026;8.540;2023-07-16T13:47:55;6.25;;;2.55;;
49366;SDS011;35245;52.026;8.540;2023-07-16T13:50:22;6.22;;;3.15;;
49366;SDS011;35245;52.026;8.540;2023-07-16T13:52:49;4.43;;;2.83;;
49366;SDS011;35245;52.026;8.540;2023-07-16T13:55:16;3.58;;;2.15;;
49366;SDS011;35245;52.026;8.540;2023-07-16T13:57:43;5.43;;;2.60;;
49366;SDS011;35245;52.026;8.540;2023-07-16T14:00:12;5.10;;;2.97;;
49366;SDS011;35245;52.026;8.540;2023-07-16T14:02:42;5.82;;;3.45;;
49366;SDS011;35245;52.026;8.540;2023-07-16T14:05:09;5.78;;;2.67;;
49366;SDS011;35245;52.026;8.540;2023-07-16T14:07:36;3.78;;;2.53;;
49366;SDS011;35245;52.026;8.540;2023-07-16T14:10:03;7.68;;;2.90;;
49366;SDS011;35245;52.026;8.540;2023-07-16T14:12:31;9.02;;;2.78;;
49366;SDS011;35245;52.026;8.540;2023-07-16T14:14:59;5.07;;;2.83;;
49366;SDS011;35245;52.026;8.540;2023-07-16T14:17:28;5.85;;;2.50;;
49366;SDS011;35245;52.026;8.540;2023-07-16T14:19:55;4.57;;;2.97;;
49366;SDS011;35245;52.026;8.540;2023-07-16T14:22:22;5.40;;;3.15;;
49366;SDS011;35245;52.026;8.540;2023-07-16T14:24:52;10.32;;;3.10;;
49366;SDS011;35245;52.026;8.540;2023-07-16T14:27:20;7.00;;;3.05;;
49366;SDS011;35245;52.026;8.540;2023-07-16T14:29:48;10.07;;;3.28;;
49366;SDS011;35245;52.026;8.540;2023-07-16T14:32:15;6.22;;;3.10;;
49366;SDS011;35245;52.026;8.540;2023-07-16T14:34:43;4.00;;;2.53;;
49366;SDS011;35245;52.026;8.540;2023-07-16T14:37:10;5.93;;;3.20;;
49366;SDS011;35245;52.026;8.540;2023-07-16T14:39:38;6.68;;;3.28;;
49366;SDS011;35245;52.026;8.540;2023-07-16T14:42:05;5.47;;;3.42;;
49366;SDS011;35245;52.026;8.540;2023-07-16T14:44:32;5.20;;;2.83;;
49366;SDS011;35245;52.026;8.540;2023-07-16T14:47:00;6.18;;;2.90;;
49366;SDS011;35245;52.026;8.540;2023-07-16T14:49:29;5.18;;;2.90;;
49366;SDS011;35245;52.026;8.540;2023-07-16T14:51:57;6.15;;;3.08;;
49366;SDS011;35245;52.026;8.540;2023-07-16T14:54:24;5.70;;;3.03;;
49366;SDS011;35245;52.026;8.540;2023-07-16T14:56:51;5.03;;;3.00;;